Time;durP1;ratioP1;P1;durP2;ratioP2;P2;SDS_P1;SDS_P2;PMS_P1;PMS_P2;Temp;Humidity;BMP_temperature;BMP_pressure;BME280_temperature;BME280_humidity;BME280_pressure;Samples;Min_cycle;Max_cycle;Signal;HPM_P1;HPM_P2
2022/04/26 03:37:47;;;;;;;7.40;6.43;;;10.20;44.40;;;;;;5071576;28;20457;-68
2022/04/26 03:40:13;;;;;;;5.90;5.03;;;10.30;44.30;;;;;;5071789;28;20806;-68
2022/04/26 03:42:38;;;;;;;6.30;5.70;;;10.30;43.90;;;;;;5071754;28;20413;-69
2022/04/26 03:45:04;;;;;;;10.90;6.70;;;10.30;44.00;;;;;;5071904;28;20260;-70
2022/04/26 03:47:30;;;;;;;7.47;5.90;;;10.30;44.20;;;;;;5070127;28;20194;-69
2022/04/26 03:49:56;;;;;;;7.20;6.50;;;10.30;44.10;;;;;;5071696;28;20447;-69
2022/04/26 03:52:22;;;;;;;6.00;5.40;;;10.30;44.00;;;;;;5071431;28;20232;-69
2022/04/26 03:54:47;;;;;;;7.10;5.23;;;10.40;43.90;;;;;;5071773;28;20196;-67
2022/04/26 03:57:13;;;;;;;6.80;5.80;;;10.40;43.70;;;;;;5071461;28;20234;-67
2022/04/26 03:59:38;;;;;;;7.67;6.23;;;10.40;43.60;;;;;;5071275;28;20720;-67
2022/04/26 04:02:04;;;;;;;6.57;5.80;;;10.30;43.90;;;;;;5071516;28;20712;-68
2022/04/26 04:04:30;;;;;;;7.73;7.03;;;10.30;44.20;;;;;;5071535;28;20196;-70
2022/04/26 04:06:55;;;;;;;6.10;5.50;;;10.30;44.00;;;;;;5069916;28;20203;-67
2022/04/26 04:09:21;;;;;;;6.87;6.27;;;10.40;43.80;;;;;;5069874;28;20255;-69
2022/04/26 04:11:47;;;;;;;6.63;5.73;;;10.50;43.30;;;;;;5070271;28;20223;-69
2022/04/26 04:14:14;;;;;;;12.13;6.77;;;10.60;43.00;;;;;;5074504;28;20175;-70
2022/04/26 04:16:40;;;;;;;6.80;5.80;;;10.60;42.50;;;;;;5061652;28;20200;-71
2022/04/26 04:19:17;;;;;;;6.37;5.73;;;10.60;42.30;;;;;;5054927;28;20471;-70
2022/04/26 04:21:45;;;;;;;5.90;5.30;;;10.60;41.90;;;;;;5054006;28;20467;-69
2022/04/26 04:24:11;;;;;;;9.03;7.07;;;10.60;41.80;;;;;;5053718;28;20462;-69
2022/04/26 04:26:36;;;;;;;8.50;6.10;;;10.60;41.80;;;;;;5054964;28;20422;-70
2022/04/26 04:29:02;;;;;;;7.70;6.40;;;10.60;41.80;;;;;;5054432;28;20864;-69
2022/04/26 04:31:28;;;;;;;7.70;6.57;;;10.50;42.70;;;;;;5053509;28;20684;-69
2022/04/26 04:33:54;;;;;;;9.60;7.30;;;10.60;42.20;;;;;;5055090;28;20463;-70
2022/04/26 04:36:19;;;;;;;8.57;7.67;;;10.60;42.70;;;;;;5054821;28;20172;-69
2022/04/26 04:38:45;;;;;;;9.40;8.10;;;10.60;42.70;;;;;;5054666;28;20195;-70
2022/04/26 04:41:10;;;;;;;8.37;6.87;;;10.60;41.90;;;;;;5055441;28;20636;-70
2022/04/26 04:43:36;;;;;;;7.53;6.13;;;10.60;41.80;;;;;;5054843;28;20177;-69
2022/04/26 04:46:02;;;;;;;9.33;6.83;;;10.60;41.80;;;;;;5054091;28;20223;-70
2022/04/26 04:48:27;;;;;;;7.37;6.67;;;10.60;41.80;;;;;;5054141;28;20197;-69
2022/04/26 04:50:53;;;;;;;7.63;6.43;;;10.60;41.90;;;;;;5054731;28;20443;-70
2022/04/26 04:53:19;;;;;;;7.73;6.57;;;10.60;41.80;;;;;;5053678;28;20341;-69
2022/04/26 04:55:45;;;;;;;7.30;6.60;;;10.60;41.90;;;;;;5054877;28;20175;-69
2022/04/26 04:58:10;;;;;;;6.70;5.67;;;10.50;41.70;;;;;;5054208;28;20464;-70
2022/04/26 05:00:36;;;;;;;8.70;5.40;;;10.50;41.70;;;;;;5054532;28;20200;-69
2022/04/26 05:03:02;;;;;;;7.93;7.00;;;10.50;41.70;;;;;;5054126;28;20188;-70
2022/04/26 05:05:27;;;;;;;7.23;6.53;;;10.50;41.70;;;;;;5054511;28;20174;-70
2022/04/26 05:07:54;;;;;;;7.67;6.33;;;10.50;41.70;;;;;;5053005;28;20541;-69
2022/04/26 05:10:22;;;;;;;6.90;5.90;;;10.50;41.70;;;;;;5054792;28;20672;-72
2022/04/26 05:12:48;;;;;;;7.60;5.20;;;10.50;41.30;;;;;;5054136;28;20525;-72
2022/04/26 05:15:14;;;;;;;7.20;6.10;;;10.60;41.20;;;;;;5054554;28;20426;-71
2022/04/26 05:17:39;;;;;;;7.03;6.33;;;10.50;40.80;;;;;;5053789;28;20409;-72
2022/04/26 05:20:06;;;;;;;5.77;5.27;;;10.50;41.70;;;;;;5053968;28;20206;-71
2022/04/26 05:22:31;;;;;;;5.27;4.77;;;10.50;41.70;;;;;;5053100;28;20189;-71
2022/04/26 05:24:57;;;;;;;7.57;6.80;;;10.60;41.80;;;;;;5053274;28;20417;-69
2022/04/26 05:27:28;;;;;;;8.60;7.77;;;10.70;41.00;;;;;;5052708;28;20186;-71
2022/04/26 05:29:54;;;;;;;7.30;5.90;;;10.80;40.90;;;;;;5054013;28;20194;-70
2022/04/26 05:32:25;;;;;;;8.63;6.53;;;10.90;41.00;;;;;;5054881;28;20459;-68
2022/04/26 05:35:03;;;;;;;6.97;6.03;;;11.00;39.50;;;;;;5052579;28;20475;-68
2022/04/26 05:37:31;;;;;;;7.10;6.40;;;11.10;40.00;;;;;;5072488;28;20416;-68
2022/04/26 05:40:02;;;;;;;5.90;5.13;;;11.20;39.30;;;;;;5073951;28;20434;-68
2022/04/26 05:42:29;;;;;;;5.47;4.97;;;11.20;39.00;;;;;;5073829;28;20419;-68
2022/04/26 05:44:55;;;;;;;6.53;5.40;;;11.30;38.10;;;;;;5073435;28;20764;-68
2022/04/26 05:47:21;;;;;;;7.83;7.03;;;11.40;37.70;;;;;;5073467;28;20543;-68
2022/04/26 05:49:47;;;;;;;6.40;5.60;;;11.40;37.10;;;;;;5072924;28;20448;-68
2022/04/26 05:52:12;;;;;;;7.67;6.97;;;11.20;37.30;;;;;;5071988;28;20459;-68
2022/04/26 05:54:38;;;;;;;7.33;6.63;;;11.30;37.30;;;;;;5073216;28;20178;-68
2022/04/26 05:57:04;;;;;;;8.37;7.57;;;11.30;37.30;;;;;;5072997;28;20217;-68
2022/04/26 05:59:30;;;;;;;7.47;6.53;;;11.40;37.20;;;;;;5073084;28;20213;-69
2022/04/26 06:01:55;;;;;;;6.17;5.57;;;11.40;37.00;;;;;;5071613;28;20184;-69
2022/04/26 06:04:21;;;;;;;5.27;4.87;;;11.40;36.90;;;;;;5071642;28;20279;-68
2022/04/26 06:06:46;;;;;;;6.53;5.87;;;11.40;36.40;;;;;;5071248;28;20187;-68
2022/04/26 06:09:13;;;;;;;15.80;13.53;;;11.40;35.60;;;;;;5072789;28;20205;-68
2022/04/26 06:11:39;;;;;;;19.90;14.17;;;11.40;35.80;;;;;;5072570;28;20701;-68
2022/04/26 06:14:05;;;;;;;9.00;6.67;;;11.40;35.20;;;;;;5072971;28;20415;-67
2022/04/26 06:16:30;;;;;;;5.67;5.17;;;11.40;35.00;;;;;;5069336;28;20178;-68
2022/04/26 06:18:56;;;;;;;8.17;7.43;;;11.40;34.90;;;;;;5054366;28;20216;-68
2022/04/26 06:21:21;;;;;;;19.23;13.20;;;11.40;35.00;;;;;;5071475;28;20184;-68
2022/04/26 06:23:47;;;;;;;36.10;21.73;;;11.30;35.10;;;;;;5072564;28;20178;-67
2022/04/26 06:26:13;;;;;;;37.40;20.80;;;11.20;35.50;;;;;;5072558;28;20184;-68
2022/04/26 06:28:38;;;;;;;18.03;13.30;;;11.10;36.60;;;;;;5071901;28;20236;-69
2022/04/26 06:31:04;;;;;;;12.33;10.30;;;11.20;36.30;;;;;;5071340;28;20729;-68
2022/04/26 06:33:29;;;;;;;8.00;6.90;;;11.20;35.80;;;;;;5072591;28;20227;-67
2022/04/26 06:35:55;;;;;;;6.20;5.60;;;11.20;36.30;;;;;;5072461;28;20175;-70
2022/04/26 06:38:24;;;;;;;6.37;5.77;;;11.10;35.90;;;;;;5072184;28;20680;-69
2022/04/26 06:40:51;;;;;;;4.37;4.00;;;10.90;36.10;;;;;;5072472;28;20185;-69
2022/04/26 06:43:17;;;;;;;6.10;4.93;;;10.80;36.90;;;;;;5071995;28;20690;-68
2022/04/26 06:45:44;;;;;;;5.60;5.10;;;11.00;37.00;;;;;;5057046;28;20938;-69
2022/04/26 06:48:10;;;;;;;7.20;5.37;;;10.90;37.00;;;;;;5052473;28;20175;-69
2022/04/26 06:50:37;;;;;;;5.63;5.07;;;10.90;36.10;;;;;;5071535;28;20442;-69
2022/04/26 06:53:03;;;;;;;8.00;6.47;;;10.80;34.00;;;;;;5071897;28;20468;-71
2022/04/26 06:55:28;;;;;;;7.37;5.43;;;10.90;35.30;;;;;;5072090;28;20503;-70
2022/04/26 06:57:54;;;;;;;4.20;3.80;;;11.00;35.40;;;;;;5071506;28;20426;-69
2022/04/26 07:00:19;;;;;;;5.40;4.80;;;11.10;36.20;;;;;;5071341;28;20207;-68
2022/04/26 07:02:45;;;;;;;5.77;4.60;;;11.10;35.90;;;;;;5070481;28;20196;-69
2022/04/26 07:05:11;;;;;;;6.53;6.00;;;11.20;35.80;;;;;;5071954;28;20181;-68
2022/04/26 07:07:38;;;;;;;4.50;3.93;;;11.10;34.10;;;;;;5071040;28;20201;-70
2022/04/26 07:10:05;;;;;;;5.53;5.03;;;11.10;35.20;;;;;;5070306;28;20444;-70
2022/04/26 07:12:31;;;;;;;6.90;5.80;;;11.20;34.30;;;;;;5071695;28;20474;-69
2022/04/26 07:14:56;;;;;;;8.27;5.30;;;10.60;33.30;;;;;;5070102;28;20427;-73
2022/04/26 07:17:22;;;;;;;7.70;6.00;;;10.80;35.40;;;;;;5072973;28;20422;-75
2022/04/26 07:19:48;;;;;;;6.77;5.27;;;11.10;34.40;;;;;;5071280;28;20197;-74
2022/04/26 07:22:14;;;;;;;5.77;5.17;;;11.40;34.90;;;;;;5071969;28;20418;-74
2022/04/26 07:24:40;;;;;;;6.43;5.80;;;11.50;35.00;;;;;;5072113;28;20620;-74
2022/04/26 07:27:05;;;;;;;6.23;5.73;;;11.80;34.80;;;;;;5072553;28;20281;-74
2022/04/26 07:29:31;;;;;;;4.60;4.20;;;11.70;32.40;;;;;;5070764;28;20516;-74
2022/04/26 07:31:57;;;;;;;6.53;5.03;;;12.10;33.30;;;;;;5073174;28;20739;-74
2022/04/26 07:34:24;;;;;;;10.87;6.47;;;12.50;33.20;;;;;;5071687;28;20917;-74
2022/04/26 07:36:51;;;;;;;7.60;6.80;;;12.90;30.20;;;;;;5071226;28;20280;-74
2022/04/26 07:39:18;;;;;;;7.47;6.87;;;13.00;28.80;;;;;;5071464;28;20424;-74
2022/04/26 07:41:49;;;;;;;8.00;7.20;;;13.30;29.00;;;;;;5071796;28;20940;-75
2022/04/26 07:44:16;;;;;;;6.90;6.30;;;13.50;28.80;;;;;;5071270;28;20427;-74
2022/04/26 07:46:45;;;;;;;7.97;7.40;;;13.70;27.80;;;;;;5071461;28;20423;-74
2022/04/26 07:49:15;;;;;;;7.63;7.03;;;13.80;26.60;;;;;;5072976;28;20444;-74
2022/04/26 07:51:42;;;;;;;9.00;8.20;;;13.90;26.20;;;;;;5073777;28;20484;-74
2022/04/26 07:54:08;;;;;;;7.50;7.00;;;13.90;25.80;;;;;;5074319;28;20450;-74
2022/04/26 07:56:34;;;;;;;7.77;7.07;;;13.80;26.90;;;;;;5075739;28;20426;-74
2022/04/26 07:59:01;;;;;;;8.43;7.73;;;13.80;27.10;;;;;;5075338;28;20828;-74
2022/04/26 08:01:28;;;;;;;8.37;7.77;;;13.70;26.70;;;;;;5075131;28;20177;-74
2022/04/26 08:03:54;;;;;;;9.57;8.67;;;13.70;26.80;;;;;;5075179;28;20412;-74
2022/04/26 08:06:20;;;;;;;7.07;6.57;;;13.70;26.70;;;;;;5075250;28;20418;-74
2022/04/26 08:08:46;;;;;;;8.37;7.60;;;13.70;26.40;;;;;;5074808;28;20446;-74
2022/04/26 08:11:13;;;;;;;8.13;7.63;;;13.70;26.40;;;;;;5074038;28;20257;-74
2022/04/26 08:13:41;;;;;;;9.43;8.40;;;13.70;26.30;;;;;;5074729;28;20166;-74
2022/04/26 08:16:08;;;;;;;8.97;8.37;;;13.70;26.50;;;;;;5075239;28;20412;-74
2022/04/26 08:18:33;;;;;;;8.40;7.90;;;13.70;25.10;;;;;;5074744;28;20449;-74
2022/04/26 08:21:00;;;;;;;8.07;7.47;;;13.60;26.20;;;;;;5074882;28;20416;-75
2022/04/26 08:23:25;;;;;;;8.37;7.73;;;13.60;26.40;;;;;;5073032;28;20655;-74
2022/04/26 08:28:36;;;;;;;8.80;8.20;;;13.50;26.60;;;;;;5075159;28;20359;-75
2022/04/26 08:31:01;;;;;;;9.90;9.10;;;13.70;26.50;;;;;;5074649;28;20796;-72
2022/04/26 08:33:29;;;;;;;9.23;8.63;;;13.70;25.50;;;;;;5074291;28;20430;-72
2022/04/26 08:35:56;;;;;;;10.30;9.43;;;13.70;25.30;;;;;;5074810;28;20205;-72
2022/04/26 08:38:21;;;;;;;8.07;7.57;;;13.80;26.70;;;;;;5074241;28;21046;-72
2022/04/26 08:40:47;;;;;;;8.23;7.63;;;13.90;26.20;;;;;;5073637;28;20517;-72
2022/04/26 08:43:14;;;;;;;8.57;7.77;;;13.90;25.30;;;;;;5074748;28;20456;-69
2022/04/26 08:45:40;;;;;;;9.63;8.53;;;13.90;25.30;;;;;;5074374;28;20181;-71
2022/04/26 08:51:00;;;;;;;8.60;8.10;;;13.70;26.50;;;;;;5074649;28;20927;-71
2022/04/26 08:53:31;;;;;;;8.87;8.07;;;13.80;25.20;;;;;;5074307;28;20849;-71
2022/04/26 08:56:00;;;;;;;9.80;8.90;;;14.00;24.90;;;;;;5074277;28;20542;-75
2022/04/26 08:58:29;;;;;;;9.83;9.23;;;14.10;23.70;;;;;;5073428;28;20443;-76
2022/04/26 09:01:13;;;;;;;10.93;10.23;;;14.20;23.40;;;;;;5073246;28;20425;-76
2022/04/26 09:03:41;;;;;;;10.10;9.50;;;14.20;22.90;;;;;;5073085;28;20794;-76
2022/04/26 09:06:13;;;;;;;11.50;10.50;;;14.20;23.00;;;;;;5073984;28;20434;-76
2022/04/26 09:08:39;;;;;;;10.00;9.40;;;14.10;22.10;;;;;;5073860;28;20528;-70
2022/04/26 09:11:26;;;;;;;10.73;10.13;;;14.10;23.20;;;;;;5074114;28;20468;-75
2022/04/26 09:13:51;;;;;;;11.20;10.40;;;14.20;22.60;;;;;;5073655;28;20831;-69
2022/04/26 09:16:19;;;;;;;10.23;9.63;;;14.40;22.10;;;;;;5074034;28;20419;-69
2022/04/26 09:19:01;;;;;;;10.07;9.50;;;14.50;21.70;;;;;;5073477;28;20201;-70
2022/04/26 09:21:28;;;;;;;10.70;10.20;;;14.70;21.60;;;;;;5073855;28;20415;-75
2022/04/26 09:23:59;;;;;;;11.00;10.20;;;15.00;20.80;;;;;;5073492;28;20435;-75
2022/04/26 09:26:33;;;;;;;10.70;10.00;;;15.20;21.10;;;;;;5072480;28;20521;-75
2022/04/26 09:28:59;;;;;;;10.10;9.60;;;15.40;21.00;;;;;;5072056;28;20986;-76
2022/04/26 09:31:30;;;;;;;11.77;11.07;;;15.60;21.40;;;;;;5073781;28;20459;-76
2022/04/26 09:34:04;;;;;;;11.70;11.07;;;15.70;19.60;;;;;;5073567;28;20174;-76
2022/04/26 09:36:42;;;;;;;12.00;11.37;;;15.90;20.50;;;;;;5072253;28;20432;-75
2022/04/26 09:39:09;;;;;;;14.07;13.17;;;16.20;19.70;;;;;;5073312;28;20436;-75
2022/04/26 09:41:35;;;;;;;13.60;12.80;;;16.50;18.30;;;;;;5073810;28;20826;-76
2022/04/26 09:44:07;;;;;;;13.83;13.03;;;16.60;17.40;;;;;;5072321;28;20420;-76
2022/04/26 09:46:53;;;;;;;13.73;12.90;;;16.60;17.80;;;;;;5073597;28;20416;-77
2022/04/26 09:49:21;;;;;;;12.60;12.00;;;16.70;17.40;;;;;;5073218;28;20442;-76
2022/04/26 09:51:51;;;;;;;14.03;13.43;;;16.60;17.60;;;;;;5073480;28;20452;-75
2022/04/26 09:54:17;;;;;;;15.07;14.27;;;16.60;17.20;;;;;;5072309;28;20921;-75
2022/04/26 09:56:46;;;;;;;14.27;13.57;;;16.60;16.20;;;;;;5073292;28;20416;-76
2022/04/26 09:59:27;;;;;;;14.30;13.40;;;16.60;17.30;;;;;;5072774;28;20677;-77
2022/04/26 10:01:56;;;;;;;13.87;13.07;;;16.40;16.80;;;;;;5073202;28;20477;-76
2022/04/26 10:04:23;;;;;;;13.97;13.27;;;16.10;18.30;;;;;;5073167;28;20423;-76
2022/04/26 10:06:53;;;;;;;13.90;13.20;;;16.10;16.80;;;;;;5073156;28;20416;-76
2022/04/26 10:09:19;;;;;;;14.00;13.20;;;16.20;17.80;;;;;;5072669;28;20858;-76
2022/04/26 10:11:44;;;;;;;13.00;12.40;;;15.70;15.20;;;;;;5072512;28;20509;-75
2022/04/26 10:14:11;;;;;;;13.43;12.70;;;15.70;17.40;;;;;;5072897;28;20420;-74
2022/04/26 10:16:38;;;;;;;14.70;13.80;;;16.00;17.50;;;;;;5072860;28;20261;-75
2022/04/26 10:19:09;;;;;;;13.80;13.10;;;16.10;17.10;;;;;;5072434;28;20441;-75
2022/04/26 10:21:40;;;;;;;13.80;13.20;;;15.80;17.80;;;;;;5072829;28;20455;-75
2022/04/26 10:24:22;;;;;;;14.67;13.87;;;16.20;17.40;;;;;;5072596;28;20420;-76
2022/04/26 10:26:49;;;;;;;15.90;14.90;;;16.70;15.20;;;;;;5072771;28;20412;-74
2022/04/26 10:29:22;;;;;;;15.20;14.50;;;17.10;14.60;;;;;;5071010;28;20443;-75
2022/04/26 10:32:10;;;;;;;13.83;13.20;;;17.30;13.70;;;;;;5071490;28;20463;-76
2022/04/26 10:34:36;;;;;;;15.63;14.63;;;17.30;14.70;;;;;;5071226;28;20442;-75
2022/04/26 10:37:09;;;;;;;13.70;12.90;;;17.40;14.80;;;;;;5072504;28;20503;-75
2022/04/26 10:39:38;;;;;;;14.33;13.63;;;17.20;14.60;;;;;;5070953;28;20468;-75
2022/04/26 10:42:24;;;;;;;14.67;13.97;;;17.20;14.00;;;;;;5072401;28;20420;-76
2022/04/26 10:44:49;;;;;;;14.23;13.53;;;17.20;14.50;;;;;;5072383;28;20431;-75
2022/04/26 10:47:21;;;;;;;15.30;14.60;;;16.30;13.20;;;;;;5072001;28;20416;-77
2022/04/26 10:49:48;;;;;;;13.33;12.63;;;15.80;13.60;;;;;;5072394;28;20202;-76
2022/04/26 10:52:14;;;;;;;15.30;14.27;;;15.70;14.80;;;;;;5072231;28;20466;-76
2022/04/26 10:54:46;;;;;;;14.03;13.43;;;15.80;15.50;;;;;;5072189;28;20976;-76
2022/04/26 10:57:15;;;;;;;13.93;13.13;;;15.70;15.20;;;;;;5071942;28;20416;-75
2022/04/26 10:59:45;;;;;;;14.50;13.80;;;16.00;16.10;;;;;;5071941;28;20447;-75
2022/04/26 11:02:14;;;;;;;14.60;13.90;;;16.20;15.30;;;;;;5070908;28;20427;-75
2022/04/26 11:04:40;;;;;;;16.27;15.37;;;16.40;14.40;;;;;;5071004;28;20416;-76
2022/04/26 11:07:20;;;;;;;14.73;14.10;;;16.60;13.70;;;;;;5071752;28;20924;-77
2022/04/26 11:09:51;;;;;;;13.97;13.37;;;16.40;14.10;;;;;;5071722;28;20459;-76
2022/04/26 11:12:17;;;;;;;14.77;13.87;;;15.60;14.00;;;;;;5072117;28;20452;-76
2022/04/26 11:14:43;;;;;;;14.10;13.50;;;16.10;15.00;;;;;;5071395;28;20459;-75
2022/04/26 11:17:09;;;;;;;16.33;15.57;;;16.60;14.20;;;;;;5072184;28;20901;-76
2022/04/26 11:19:40;;;;;;;19.03;17.13;;;16.60;11.40;;;;;;5071505;28;20481;-77
2022/04/26 11:22:09;;;;;;;16.17;15.27;;;16.40;14.10;;;;;;5071083;28;20177;-77
2022/04/26 11:30:08;;;;;;;14.50;13.80;;;14.90;13.80;;;;;;5071627;28;20523;-76
2022/04/26 11:32:35;;;;;;;13.60;13.00;;;14.30;15.20;;;;;;5070229;28;20501;-76
2022/04/26 11:35:01;;;;;;;13.37;12.80;;;14.00;15.90;;;;;;5071540;28;20876;-77
2022/04/26 11:37:27;;;;;;;12.30;11.50;;;13.90;15.60;;;;;;5071450;28;20446;-77
2022/04/26 11:39:53;;;;;;;12.50;11.80;;;13.80;18.80;;;;;;5071583;28;20427;-77
2022/04/26 11:42:20;;;;;;;13.20;12.60;;;14.20;20.10;;;;;;5071723;28;20487;-76
2022/04/26 11:45:06;;;;;;;13.17;12.47;;;14.60;17.20;;;;;;5071575;28;20639;-76
2022/04/26 11:47:49;;;;;;;14.27;13.17;;;14.90;17.60;;;;;;5071369;28;20448;-76
2022/04/26 11:50:20;;;;;;;13.77;13.07;;;15.20;16.90;;;;;;5070221;28;20440;-76
2022/04/26 11:52:48;;;;;;;13.50;12.80;;;15.30;15.40;;;;;;5070294;28;20460;-75
2022/04/26 11:55:25;;;;;;;14.80;13.80;;;15.50;16.50;;;;;;5071533;28;20444;-75
2022/04/26 11:57:52;;;;;;;13.90;13.30;;;15.70;15.50;;;;;;5071052;28;20415;-76
2022/04/26 12:00:20;;;;;;;14.93;14.07;;;16.00;13.80;;;;;;5071274;28;20444;-76
2022/04/26 12:02:47;;;;;;;15.67;14.77;;;16.20;13.90;;;;;;5070445;28;20918;-75
2022/04/26 12:05:14;;;;;;;15.90;15.10;;;16.30;13.00;;;;;;5071526;28;20781;-75
2022/04/26 12:07:40;;;;;;;15.50;14.50;;;16.40;14.10;;;;;;5071181;28;20412;-76
2022/04/26 12:10:32;;;;;;;14.13;13.40;;;16.60;13.50;;;;;;5069992;28;20436;-76
2022/04/26 12:13:01;;;;;;;14.47;13.77;;;16.70;14.30;;;;;;5071338;28;20448;-76
2022/04/26 12:15:36;;;;;;;16.27;15.33;;;16.80;11.60;;;;;;5070189;28;20423;-75
2022/04/26 12:18:14;;;;;;;14.57;13.90;;;16.70;9.80;;;;;;5071034;28;20407;-75
2022/04/26 12:21:02;;;;;;;14.90;14.30;;;16.70;11.90;;;;;;5069986;28;20917;-76
2022/04/26 12:23:28;;;;;;;14.53;13.83;;;16.30;10.60;;;;;;5071543;28;20405;-75
2022/04/26 12:26:00;;;;;;;13.43;12.93;;;16.40;12.10;;;;;;5071444;28;20415;-76
2022/04/26 12:28:26;;;;;;;14.70;14.10;;;16.50;10.50;;;;;;5069623;28;20523;-78
2022/04/26 12:30:56;;;;;;;14.53;14.00;;;16.50;8.90;;;;;;5071248;28;20979;-76
2022/04/26 12:33:39;;;;;;;14.40;13.80;;;16.40;9.30;;;;;;5071557;28;20214;-76
2022/04/26 12:36:06;;;;;;;14.97;14.27;;;16.00;9.30;;;;;;5074944;28;20435;-76
2022/04/26 12:38:46;;;;;;;14.80;14.20;;;15.90;9.10;;;;;;5074548;28;20423;-76
2022/04/26 12:41:21;;;;;;;15.40;14.70;;;15.60;9.70;;;;;;5074817;28;20420;-75
2022/04/26 12:44:00;;;;;;;14.80;14.20;;;15.50;10.40;;;;;;5073401;28;20415;-75
2022/04/26 12:46:26;;;;;;;15.83;14.60;;;15.70;10.10;;;;;;5073791;28;20442;-75
2022/04/26 12:51:52;;;;;;;14.70;14.10;;;16.10;10.30;;;;;;5074694;28;20205;-75
2022/04/26 12:54:18;;;;;;;14.63;13.97;;;15.90;10.30;;;;;;5074578;28;20404;-76
2022/04/26 12:56:59;;;;;;;14.10;13.50;;;16.10;10.70;;;;;;5073200;28;20898;-76
2022/04/26 12:59:34;;;;;;;14.50;13.70;;;16.20;10.80;;;;;;5074027;28;20292;-75
2022/04/26 13:02:00;;;;;;;14.33;13.73;;;16.10;10.50;;;;;;5074463;28;20415;-76
2022/04/26 13:04:26;;;;;;;14.30;13.70;;;15.90;11.80;;;;;;5072841;28;20420;-76
2022/04/26 13:06:53;;;;;;;14.80;14.20;;;15.90;12.50;;;;;;5072908;28;20272;-76
2022/04/26 13:09:18;;;;;;;14.80;14.10;;;15.90;13.00;;;;;;5073032;28;20198;-75
2022/04/26 13:11:44;;;;;;;15.20;14.47;;;16.10;12.20;;;;;;5073040;28;20544;-76
2022/04/26 13:14:10;;;;;;;13.77;13.17;;;16.10;11.80;;;;;;5074072;28;20212;-75
2022/04/26 13:16:35;;;;;;;14.40;13.80;;;16.20;11.40;;;;;;5072896;28;20420;-76
2022/04/26 13:19:01;;;;;;;15.43;14.63;;;16.10;11.40;;;;;;5073821;28;20217;-75
2022/04/26 13:21:26;;;;;;;14.73;14.13;;;16.10;11.40;;;;;;5074046;28;20276;-75
2022/04/26 13:23:54;;;;;;;14.10;13.50;;;16.10;10.30;;;;;;5074678;28;20533;-75
2022/04/26 13:26:20;;;;;;;14.37;13.67;;;15.90;11.20;;;;;;5072842;28;20268;-76
2022/04/26 13:28:46;;;;;;;13.73;13.23;;;15.90;10.60;;;;;;5073527;28;20918;-76
2022/04/26 13:31:11;;;;;;;14.60;14.00;;;15.90;10.60;;;;;;5072470;28;20248;-75
2022/04/26 13:33:37;;;;;;;15.40;14.80;;;15.90;9.80;;;;;;5073916;28;20566;-75
2022/04/26 13:36:03;;;;;;;16.00;14.90;;;16.00;8.60;;;;;;5073515;28;20170;-76
2022/04/26 13:38:28;;;;;;;15.43;14.70;;;15.80;8.20;;;;;;5073281;28;20273;-76
2022/04/26 13:40:55;;;;;;;14.93;14.13;;;15.90;10.50;;;;;;5072085;28;20178;-75
2022/04/26 13:43:23;;;;;;;16.60;15.80;;;16.00;9.30;;;;;;5073144;28;20170;-76
2022/04/26 13:45:55;;;;;;;16.43;15.57;;;16.20;8.70;;;;;;5071429;28;20789;-76
2022/04/26 13:48:20;;;;;;;18.03;16.97;;;16.30;8.20;;;;;;5072958;28;20439;-76
2022/04/26 13:50:46;;;;;;;16.20;15.13;;;16.10;8.40;;;;;;5073271;28;20408;-76
2022/04/26 13:53:11;;;;;;;16.40;15.70;;;16.10;9.40;;;;;;5073388;28;20245;-75
2022/04/26 13:55:37;;;;;;;17.80;16.60;;;16.40;8.00;;;;;;5073368;28;20174;-76
2022/04/26 13:58:05;;;;;;;17.20;16.10;;;16.00;4.80;;;;;;5071350;28;20181;-76
2022/04/26 14:00:34;;;;;;;16.57;15.87;;;16.10;8.20;;;;;;5053975;22;20227;-75
2022/04/26 14:02:59;;;;;;;17.50;16.70;;;16.10;7.60;;;;;;5031956;28;20822;-75
2022/04/26 14:05:27;;;;;;;16.63;15.83;;;16.00;8.20;;;;;;5031900;28;20418;-74
2022/04/26 14:07:52;;;;;;;16.93;16.23;;;16.00;8.70;;;;;;5032935;28;20656;-75
2022/04/26 14:10:18;;;;;;;16.00;15.40;;;15.60;9.10;;;;;;5032981;28;20480;-74
2022/04/26 14:12:44;;;;;;;16.17;15.37;;;15.60;9.40;;;;;;5032913;28;20209;-75
2022/04/26 14:23:27;;;;;;;15.13;14.50;;;15.10;9.90;;;;;;5033274;28;20497;-74
2022/04/26 14:25:53;;;;;;;15.87;15.00;;;14.50;11.30;;;;;;5031428;28;20512;-74
2022/04/26 14:28:19;;;;;;;17.80;16.40;;;14.00;12.40;;;;;;5032593;28;20581;-74
2022/04/26 14:30:44;;;;;;;14.87;14.20;;;13.50;13.70;;;;;;5031338;28;20445;-74
2022/04/26 14:33:10;;;;;;;13.10;12.50;;;13.50;13.60;;;;;;5032756;28;20292;-74
2022/04/26 14:35:35;;;;;;;14.00;13.30;;;13.60;14.00;;;;;;5032687;28;20177;-74
2022/04/26 14:38:01;;;;;;;13.73;13.10;;;13.40;13.10;;;;;;5032380;28;20178;-75
2022/04/26 14:40:26;;;;;;;13.93;12.80;;;13.50;14.20;;;;;;5032498;28;20205;-74
2022/04/26 14:42:54;;;;;;;14.00;13.10;;;13.40;15.20;;;;;;5032480;28;20642;-74
2022/04/26 14:45:20;;;;;;;13.90;13.20;;;13.30;16.30;;;;;;5032450;28;20212;-75
2022/04/26 14:47:46;;;;;;;12.70;12.00;;;13.10;17.20;;;;;;5032156;28;20445;-75
2022/04/26 14:50:12;;;;;;;11.63;10.93;;;12.90;18.80;;;;;;5032485;28;20435;-75
2022/04/26 14:52:38;;;;;;;12.67;11.87;;;12.60;20.70;;;;;;5032208;28;20197;-75
2022/04/26 14:55:05;;;;;;;11.37;10.60;;;12.40;20.80;;;;;;5032260;28;20407;-75
2022/04/26 14:57:31;;;;;;;10.13;9.53;;;12.20;20.90;;;;;;5031038;28;20404;-75
2022/04/26 14:59:56;;;;;;;11.80;10.70;;;12.20;22.10;;;;;;5030864;28;20524;-75
2022/04/26 15:02:22;;;;;;;11.43;10.80;;;12.30;21.10;;;;;;5032178;28;20225;-75
2022/04/26 15:04:48;;;;;;;10.70;10.10;;;12.70;22.30;;;;;;5032201;28;20545;-75
2022/04/26 15:07:14;;;;;;;11.27;10.67;;;13.00;21.60;;;;;;5032203;28;20412;-75
2022/04/26 15:09:42;;;;;;;11.13;10.40;;;13.40;21.70;;;;;;5032133;28;20438;-75
2022/04/26 15:17:43;;;;;;;10.40;9.80;;;14.20;20.60;;;;;;5031884;28;20414;-75
2022/04/26 15:20:11;;;;;;;11.23;10.63;;;14.40;19.30;;;;;;5032075;28;20466;-75
2022/04/26 15:22:37;;;;;;;11.97;11.37;;;14.60;19.70;;;;;;5032079;28;20430;-75
2022/04/26 15:25:06;;;;;;;12.70;12.00;;;14.70;18.70;;;;;;5030909;28;20911;-75
2022/04/26 15:27:34;;;;;;;12.03;11.53;;;14.80;17.90;;;;;;5030321;28;20430;-75
2022/04/26 15:30:00;;;;;;;12.87;12.07;;;14.90;17.40;;;;;;5031823;28;20441;-75
2022/04/26 15:32:25;;;;;;;12.17;11.57;;;14.80;17.20;;;;;;5030413;28;20481;-75
2022/04/26 15:34:51;;;;;;;13.07;12.30;;;14.80;17.40;;;;;;5031924;28;20417;-75
2022/04/26 15:37:17;;;;;;;12.10;11.43;;;14.80;16.30;;;;;;5031541;28;20198;-75
2022/04/26 15:39:43;;;;;;;13.30;12.60;;;14.80;16.50;;;;;;5031673;28;20244;-75
2022/04/26 15:42:08;;;;;;;13.57;12.80;;;14.80;16.10;;;;;;5031776;28;20261;-75
2022/04/26 15:44:34;;;;;;;13.00;12.23;;;14.90;16.40;;;;;;5031741;28;20969;-75
2022/04/26 15:47:00;;;;;;;13.00;12.40;;;14.80;16.30;;;;;;5031576;28;20550;-75
2022/04/26 15:49:26;;;;;;;13.53;12.77;;;14.60;15.70;;;;;;5031463;28;20190;-75
2022/04/26 15:51:54;;;;;;;14.17;13.27;;;14.50;15.20;;;;;;5031550;28;20258;-75
2022/04/26 15:54:19;;;;;;;13.03;12.43;;;14.50;15.70;;;;;;5031775;28;20914;-75
2022/04/26 15:56:46;;;;;;;13.07;12.47;;;14.60;14.80;;;;;;5031770;28;20415;-75
2022/04/26 15:59:12;;;;;;;13.63;12.83;;;14.60;16.30;;;;;;5031232;28;20292;-75
2022/04/26 16:01:42;;;;;;;12.50;11.90;;;14.60;15.30;;;;;;5031585;28;20783;-75
2022/04/26 16:04:12;;;;;;;13.03;12.43;;;14.70;16.00;;;;;;5030681;28;20436;-75
2022/04/26 16:06:39;;;;;;;11.40;10.90;;;14.60;14.40;;;;;;5032255;28;20467;-76
2022/04/26 16:23:05;;;;;;;13.30;12.60;;;13.90;15.80;;;;;;5023526;28;20422;-75
2022/04/26 16:25:32;;;;;;;13.67;12.97;;;14.20;15.20;;;;;;5033953;28;20416;-75
2022/04/26 16:28:00;;;;;;;12.80;12.17;;;14.30;15.00;;;;;;5033884;28;20475;-75
2022/04/26 16:30:30;;;;;;;12.73;12.03;;;14.20;14.70;;;;;;5035623;28;20922;-76
2022/04/26 16:33:04;;;;;;;13.23;12.63;;;14.10;14.30;;;;;;5034239;28;20468;-74
2022/04/26 16:35:31;;;;;;;12.47;11.87;;;14.00;15.40;;;;;;5035681;28;20416;-76
2022/04/26 16:37:57;;;;;;;12.87;12.27;;;14.00;15.30;;;;;;5035422;28;20411;-76
2022/04/26 16:40:24;;;;;;;13.47;12.87;;;14.10;15.00;;;;;;5035367;28;20491;-75
2022/04/26 16:42:50;;;;;;;14.53;13.53;;;14.10;15.00;;;;;;5035504;28;20499;-75
2022/04/26 16:45:15;;;;;;;12.80;12.10;;;14.10;14.70;;;;;;5035420;28;20708;-75
2022/04/26 16:47:42;;;;;;;13.27;12.67;;;14.10;15.60;;;;;;5034931;28;20416;-75
2022/04/26 16:50:07;;;;;;;14.07;13.37;;;14.30;15.50;;;;;;5035247;28;20270;-75
2022/04/26 16:52:35;;;;;;;12.97;12.37;;;14.50;14.80;;;;;;5034819;28;21064;-75
2022/04/26 16:55:01;;;;;;;13.93;13.33;;;14.60;14.50;;;;;;5035522;28;20895;-75
2022/04/26 16:57:28;;;;;;;12.77;12.17;;;14.80;14.20;;;;;;5035435;28;20414;-75